createdAt,value
2022-12-03T00:01:35.520Z,97146.16
2022-12-03T00:04:02.111Z,97147.00
2022-12-03T00:06:34.393Z,97145.16
2022-12-03T00:09:01.216Z,97137.50
2022-12-03T00:11:27.642Z,97147.63
2022-12-03T00:13:54.055Z,97137.38
2022-12-03T00:16:20.572Z,97155.28
2022-12-03T00:18:47.019Z,97143.44
2022-12-03T00:21:13.510Z,97140.88
2022-12-03T00:23:42.285Z,97143.53
2022-12-03T00:26:08.950Z,97144.34
2022-12-03T00:28:35.375Z,97150.28
2022-12-03T00:31:01.902Z,97153.50
2022-12-03T00:33:28.382Z,97155.16
2022-12-03T00:35:54.819Z,97156.06
2022-12-03T00:38:21.243Z,97152.69
2022-12-03T00:40:47.640Z,97156.13
2022-12-03T00:43:14.118Z,97159.53
2022-12-03T00:45:40.553Z,97156.97
2022-12-03T00:48:06.977Z,97159.44
2022-12-03T00:50:33.387Z,97165.38
2022-12-03T00:52:59.773Z,97161.09
2022-12-03T00:55:26.191Z,97153.34
2022-12-03T00:57:52.658Z,97157.47
2022-12-03T01:00:19.241Z,97162.59
2022-12-03T01:03:09.651Z,97156.47
2022-12-03T01:05:36.105Z,97160.75
2022-12-03T01:08:02.667Z,97165.06
2022-12-03T01:10:29.177Z,97163.41
2022-12-03T01:12:55.645Z,97164.22
2022-12-03T01:15:22.181Z,97159.03
2022-12-03T01:17:48.842Z,97159.72
2022-12-03T01:20:15.274Z,97161.44
2022-12-03T01:22:41.697Z,97152.97
2022-12-03T01:25:09.893Z,97158.22
2022-12-03T01:27:36.348Z,97152.50
2022-12-03T01:30:02.879Z,97142.38
2022-12-03T01:32:29.415Z,97156.13
2022-12-03T01:34:56.278Z,97140.81
2022-12-03T01:37:23.678Z,97141.72
2022-12-03T01:39:50.251Z,97140.06
2022-12-03T01:42:20.331Z,97152.75
2022-12-03T01:44:46.762Z,97137.38
2022-12-03T01:47:14.220Z,97147.50
2022-12-03T01:49:48.206Z,97150.88
2022-12-03T01:52:15.733Z,97141.47
2022-12-03T01:54:50.043Z,97152.59
2022-12-03T01:57:18.640Z,97143.13
2022-12-03T01:59:45.057Z,97138.78
2022-12-03T02:02:12.372Z,97136.25
2022-12-03T02:04:38.928Z,97145.53
2022-12-03T02:07:22.090Z,97150.56
2022-12-03T02:09:48.607Z,97136.66
2022-12-03T02:12:15.592Z,97135.16
2022-12-03T02:14:42.035Z,97138.63
2022-12-03T02:17:08.536Z,97146.28
2022-12-03T02:19:34.954Z,97147.09
2022-12-03T02:22:04.385Z,97141.91
2022-12-03T02:24:36.944Z,97141.91
2022-12-03T02:27:03.594Z,97142.81
2022-12-03T02:29:30.060Z,97144.47
2022-12-03T02:31:56.570Z,97140.22
2022-12-03T02:34:35.518Z,97146.13
2022-12-03T02:37:01.986Z,97148.75
2022-12-03T02:39:28.417Z,97145.22
2022-12-03T02:42:13.498Z,97153.69
2022-12-03T02:44:39.896Z,97152.88
2022-12-03T02:47:06.566Z,97146.03
2022-12-03T02:49:33.030Z,97155.34
2022-12-03T02:51:59.489Z,97141.63
2022-12-03T02:54:25.930Z,97144.00
2022-12-03T02:56:52.441Z,97147.53
2022-12-03T02:59:18.859Z,97140.72
2022-12-03T03:01:45.300Z,97139.88
2022-12-03T03:04:11.765Z,97133.09
2022-12-03T03:06:38.144Z,97138.22
2022-12-03T03:09:04.922Z,97138.97
2022-12-03T03:11:31.457Z,97150.84
2022-12-03T03:13:57.869Z,97139.72
2022-12-03T03:16:24.325Z,97148.19
2022-12-03T03:18:50.859Z,97139.72
2022-12-03T03:21:17.282Z,97135.50
2022-12-03T03:23:43.697Z,97140.72
2022-12-03T03:26:10.650Z,97139.88
2022-12-03T03:28:41.470Z,97147.47
2022-12-03T03:31:08.257Z,97143.19
2022-12-03T03:33:34.723Z,97148.19
2022-12-03T03:36:01.224Z,97144.72
2022-12-03T03:38:27.674Z,97140.44
2022-12-03T03:40:54.077Z,97140.38
2022-12-03T03:43:20.927Z,97146.22
2022-12-03T03:45:47.383Z,97147.88
2022-12-03T03:48:13.868Z,97154.63
2022-12-03T03:50:40.294Z,97150.28
2022-12-03T03:53:06.694Z,97142.44
2022-12-03T03:55:33.151Z,97146.75
2022-12-03T03:57:59.617Z,97146.81
2022-12-03T04:00:26.115Z,97146.97
2022-12-03T04:02:52.822Z,97145.41
2022-12-03T04:05:20.279Z,97135.28
2022-12-03T04:07:46.953Z,97136.19
2022-12-03T04:10:32.262Z,97143.84
2022-12-03T04:12:58.828Z,97140.38
2022-12-03T04:15:25.306Z,97138.66
2022-12-03T04:18:10.505Z,97137.66
2022-12-03T04:23:58.679Z,97142.03
2022-12-03T04:26:43.883Z,97139.47
2022-12-03T04:29:10.326Z,97133.63
2022-12-03T04:31:55.447Z,97130.22
2022-12-03T04:34:40.722Z,97133.69
2022-12-03T04:37:07.157Z,97145.50
2022-12-03T04:39:33.650Z,97131.00
2022-12-03T04:42:00.083Z,96919.59
2022-12-03T04:44:38.673Z,97045.41
2022-12-03T04:47:06.568Z,97139.72
2022-12-03T04:49:33.248Z,97126.81
2022-12-03T04:51:59.802Z,97130.22
2022-12-03T04:54:26.593Z,97131.00
2022-12-03T04:56:53.042Z,97130.00
2022-12-03T04:59:19.513Z,97127.38
2022-12-03T05:01:46.125Z,97131.41
2022-12-03T05:04:12.957Z,97122.94
2022-12-03T05:06:39.525Z,97120.28
2022-12-03T05:09:05.955Z,97116.84
2022-12-03T05:11:32.372Z,97123.38
2022-12-03T05:13:58.789Z,97125.94
2022-12-03T05:16:25.348Z,97126.75
2022-12-03T05:18:51.827Z,97124.09
2022-12-03T05:21:18.251Z,97128.38
2022-12-03T05:23:44.781Z,97135.13
2022-12-03T05:26:11.273Z,97133.25
2022-12-03T05:28:37.695Z,97124.94
2022-12-03T05:31:05.184Z,97126.34
2022-12-03T05:33:31.773Z,97111.75
2022-12-03T05:35:58.211Z,97122.13
2022-12-03T05:38:24.649Z,97123.88
2022-12-03T05:40:51.046Z,97117.84
2022-12-03T05:46:45.859Z,97125.66
2022-12-03T05:49:12.351Z,97120.56
2022-12-03T05:51:38.778Z,97131.59
2022-12-03T05:54:05.188Z,97134.97
2022-12-03T05:56:31.680Z,97133.19
2022-12-03T05:58:58.085Z,97135.63
2022-12-03T06:01:24.485Z,97131.34
2022-12-03T06:03:51.053Z,97137.22
2022-12-03T06:06:17.630Z,97126.09
2022-12-03T06:08:44.064Z,97132.84
2022-12-03T06:11:10.502Z,97133.50
2022-12-03T06:13:36.906Z,97141.25
2022-12-03T06:16:03.543Z,97142.16
2022-12-03T06:18:30.031Z,97146.53
2022-12-03T06:20:56.435Z,97147.34
2022-12-03T06:23:22.894Z,97143.16
2022-12-03T06:25:49.396Z,97142.34
2022-12-03T06:28:15.909Z,97139.78
2022-12-03T06:30:42.420Z,97148.25
2022-12-03T06:33:08.872Z,97141.41
2022-12-03T06:35:35.459Z,97155.84
2022-12-03T06:38:01.980Z,97150.63
2022-12-03T06:40:28.453Z,97148.00
2022-12-03T06:42:54.874Z,97139.38
2022-12-03T06:45:21.325Z,97142.56
2022-12-03T06:47:47.753Z,97143.31
2022-12-03T06:50:14.303Z,97134.84
2022-12-03T06:52:40.733Z,97137.31
2022-12-03T06:55:07.454Z,97137.13
2022-12-03T06:57:33.882Z,97135.47
2022-12-03T07:00:00.371Z,97139.75
2022-12-03T07:02:26.938Z,97138.78
2022-12-03T07:04:53.723Z,97125.94
2022-12-03T07:07:20.458Z,97137.78
2022-12-03T07:09:46.973Z,97138.38
2022-12-03T07:12:13.405Z,97140.00
2022-12-03T07:14:39.851Z,97139.28
2022-12-03T07:17:06.269Z,97128.97
2022-12-03T07:19:33.260Z,97129.69
2022-12-03T07:21:59.866Z,97130.28
2022-12-03T07:24:26.310Z,97120.81
2022-12-03T07:26:52.737Z,97118.75
2022-12-03T07:29:19.381Z,97126.31
2022-12-03T07:31:45.915Z,97129.59
2022-12-03T07:34:12.446Z,97131.19
2022-12-03T07:36:38.863Z,97134.13
2022-12-03T07:39:05.658Z,97131.47
2022-12-03T07:41:32.121Z,97137.59
2022-12-03T07:43:58.591Z,97135.03
2022-12-03T07:46:45.522Z,97142.72
2022-12-03T07:49:12.459Z,97141.91
2022-12-03T07:51:38.978Z,97144.38
2022-12-03T07:54:05.494Z,97140.56
2022-12-03T07:56:31.989Z,97137.66
2022-12-03T07:58:58.429Z,97140.22
2022-12-03T08:01:24.942Z,97150.53
2022-12-03T08:03:51.565Z,97143.53
2022-12-03T08:06:17.974Z,97148.41
2022-12-03T08:08:44.667Z,97147.63
2022-12-03T08:11:12.350Z,97145.16
2022-12-03T08:13:38.802Z,97144.34
2022-12-03T08:16:10.627Z,97141.06
2022-12-03T08:18:37.286Z,97140.97
2022-12-03T08:21:06.098Z,97134.94
2022-12-03T08:23:32.518Z,97141.78
2022-12-03T08:26:02.227Z,97150.19
2022-12-03T08:28:28.731Z,97150.94
2022-12-03T08:31:12.582Z,97143.34
2022-12-03T08:33:39.551Z,97147.63
2022-12-03T08:36:09.027Z,97151.84
2022-12-03T08:38:35.580Z,97147.38
2022-12-03T08:41:01.994Z,97143.00
2022-12-03T08:43:28.912Z,97144.38
2022-12-03T08:45:56.112Z,97149.16
2022-12-03T08:48:25.928Z,97147.25
2022-12-03T08:50:53.168Z,97152.50
2022-12-03T08:53:25.727Z,97160.84
2022-12-03T08:56:31.163Z,97155.28
2022-12-03T08:59:16.069Z,97150.63
2022-12-03T09:01:43.414Z,97153.94
2022-12-03T09:04:19.867Z,97161.31
2022-12-03T09:06:46.326Z,97160.97
2022-12-03T09:09:12.754Z,97160.97
2022-12-03T09:11:39.362Z,97165.09
2022-12-03T09:17:27.732Z,97143.59
2022-12-03T09:19:54.548Z,97152.03
2022-12-03T09:22:20.975Z,97147.91
2022-12-03T09:24:47.412Z,97149.75
2022-12-03T09:27:13.841Z,97144.53
2022-12-03T09:29:40.348Z,97135.00
2022-12-03T09:32:06.839Z,97138.47
2022-12-03T09:34:34.782Z,97141.78
2022-12-03T09:37:01.487Z,97135.75
2022-12-03T09:39:27.992Z,97137.19
2022-12-03T09:41:54.917Z,97133.66
2022-12-03T09:44:21.400Z,97140.16
2022-12-03T09:46:47.956Z,97142.50
2022-12-03T09:49:16.243Z,97136.41
2022-12-03T09:51:42.898Z,97133.66
2022-12-03T09:54:09.880Z,97131.53
2022-12-03T09:56:36.924Z,97131.38
2022-12-03T09:59:06.842Z,97129.16
2022-12-03T10:01:33.380Z,97119.34
2022-12-03T10:04:00.006Z,97121.75
2022-12-03T10:06:26.514Z,97121.38
2022-12-03T10:08:54.450Z,97114.13
2022-12-03T10:11:21.588Z,97118.69
2022-12-03T10:13:48.054Z,97120.22
2022-12-03T10:16:15.961Z,97115.91
2022-12-03T10:18:43.513Z,97116.56
2022-12-03T10:21:13.068Z,97109.59
2022-12-03T10:23:39.495Z,97112.91
2022-12-03T10:26:05.967Z,97115.09
2022-12-03T10:28:33.324Z,97115.97
2022-12-03T10:31:00.342Z,97117.44
2022-12-03T10:33:30.734Z,97115.69
2022-12-03T10:35:57.231Z,97107.81
2022-12-03T10:38:23.736Z,97106.63
2022-12-03T10:40:50.406Z,97112.28
2022-12-03T10:43:19.848Z,97115.16
2022-12-03T10:45:47.102Z,97113.13
2022-12-03T10:48:13.660Z,97113.56
2022-12-03T10:50:47.291Z,97119.94
2022-12-03T10:53:13.773Z,97111.56
2022-12-03T10:55:40.993Z,97107.38
2022-12-03T10:58:10.690Z,97112.09
2022-12-03T11:00:37.191Z,97113.63
2022-12-03T11:03:03.653Z,97108.00
2022-12-03T11:05:30.315Z,97101.13
2022-12-03T11:07:56.830Z,97099.38
2022-12-03T11:10:23.364Z,97097.75
2022-12-03T11:13:08.639Z,97102.06
2022-12-03T11:15:44.756Z,97092.50
2022-12-03T11:18:11.321Z,97092.91
2022-12-03T11:20:46.835Z,97087.47
2022-12-03T11:23:13.267Z,97079.16
2022-12-03T11:25:46.900Z,97086.75
2022-12-03T11:28:13.328Z,97076.88
2022-12-03T11:30:49.073Z,96793.72
2022-12-03T11:33:25.464Z,97083.06
2022-12-03T11:36:04.123Z,97088.38
2022-12-03T11:38:52.142Z,97075.44
2022-12-03T11:41:20.589Z,97076.84
2022-12-03T11:43:53.128Z,97068.63
2022-12-03T11:46:20.257Z,97075.09
2022-12-03T11:48:46.855Z,97071.47
2022-12-03T11:51:16.787Z,97062.28
2022-12-03T11:53:43.803Z,97053.44
2022-12-03T11:56:13.478Z,97055.47
2022-12-03T11:58:41.202Z,97053.31
2022-12-03T12:04:37.949Z,97049.31
2022-12-03T12:07:04.478Z,97049.22
2022-12-03T12:09:53.409Z,97049.13
2022-12-03T12:12:20.180Z,97054.63
2022-12-03T12:14:46.626Z,97052.06
2022-12-03T12:17:29.369Z,97054.44
2022-12-03T12:20:19.079Z,97051.16
2022-12-03T12:22:45.688Z,97044.25
2022-12-03T12:25:30.562Z,97051.25
2022-12-03T12:27:57.072Z,97039.09
2022-12-03T12:30:24.167Z,97038.06
2022-12-03T12:32:51.492Z,97040.41
2022-12-03T12:35:19.166Z,97040.28
2022-12-03T12:37:58.927Z,97046.38
2022-12-03T12:40:30.688Z,97041.22
2022-12-03T12:42:57.926Z,97044.19
2022-12-03T12:45:25.067Z,97030.59
2022-12-03T12:48:09.763Z,97029.88
2022-12-03T12:50:36.538Z,97033.63
2022-12-03T12:53:21.806Z,97032.91
2022-12-03T12:55:48.579Z,97030.34
2022-12-03T12:58:15.708Z,97032.78
2022-12-03T13:00:42.295Z,97034.66
2022-12-03T13:03:08.743Z,97026.25
2022-12-03T13:05:38.944Z,97031.28
2022-12-03T13:08:24.389Z,97030.22
2022-12-03T13:10:51.618Z,97033.50
2022-12-03T13:13:46.267Z,97029.88
2022-12-03T13:16:12.851Z,97020.19
2022-12-03T13:18:39.680Z,97031.50
2022-12-03T13:21:36.282Z,97027.31
2022-12-03T13:24:02.733Z,97027.31
2022-12-03T13:26:38.645Z,97020.53
2022-12-03T13:29:13.747Z,97018.19
2022-12-03T13:31:43.838Z,97019.09
2022-12-03T13:34:19.115Z,97020.97
2022-12-03T13:36:49.323Z,97020.59
2022-12-03T13:39:21.941Z,97015.91
2022-12-03T13:42:07.197Z,97026.66
2022-12-03T13:44:33.650Z,97009.66
2022-12-03T13:47:00.887Z,97011.31
2022-12-03T13:49:28.708Z,97012.34
2022-12-03T13:51:55.136Z,97019.13
2022-12-03T13:54:22.423Z,97018.44
2022-12-03T13:56:49.282Z,97021.22
2022-12-03T13:59:19.355Z,97017.25
2022-12-03T14:01:48.252Z,97022.00
2022-12-03T14:04:14.811Z,97015.44
2022-12-03T14:06:41.355Z,97015.63
2022-12-03T14:09:07.826Z,97018.44
2022-12-03T14:11:52.812Z,97017.94
2022-12-03T14:14:20.911Z,97013.63
2022-12-03T14:16:47.795Z,97010.34
2022-12-03T14:19:14.612Z,97010.34
2022-12-03T14:21:41.548Z,97008.91
2022-12-03T14:24:08.005Z,97007.59
2022-12-03T14:26:34.480Z,97020.78
2022-12-03T14:29:04.685Z,97017.59
2022-12-03T14:31:33.705Z,97024.38
2022-12-03T14:34:00.195Z,97020.19
2022-12-03T14:36:26.731Z,97023.69
2022-12-03T14:38:53.289Z,97029.41
2022-12-03T14:41:38.370Z,97021.00
2022-12-03T14:44:04.844Z,97031.41
2022-12-03T14:46:31.416Z,97033.22
2022-12-03T14:48:57.857Z,97029.97
2022-12-03T14:51:24.499Z,97033.34
2022-12-03T14:53:50.940Z,97039.31
2022-12-03T14:56:17.496Z,97043.50
2022-12-03T14:58:44.019Z,97044.66
2022-12-03T15:01:10.785Z,97042.72
2022-12-03T15:03:37.361Z,97042.72
2022-12-03T15:06:27.730Z,97048.06
2022-12-03T15:08:57.911Z,97051.69
2022-12-03T15:11:24.350Z,97054.97
2022-12-03T15:13:50.882Z,97052.50
2022-12-03T15:16:17.508Z,97051.69
2022-12-03T15:18:43.932Z,97049.94
2022-12-03T15:21:10.321Z,97049.63
2022-12-03T15:23:36.970Z,97043.34
2022-12-03T15:26:03.472Z,97040.66
2022-12-03T15:28:29.963Z,97035.31
2022-12-03T15:30:56.492Z,97038.69
2022-12-03T15:33:23.007Z,97042.94
2022-12-03T15:35:49.493Z,97032.84
2022-12-03T15:38:15.968Z,97043.25
2022-12-03T15:40:42.458Z,97045.81
2022-12-03T15:43:08.849Z,97045.94
2022-12-03T15:45:35.478Z,97040.88
2022-12-03T15:48:01.922Z,97039.22
2022-12-03T15:50:28.362Z,97035.13
2022-12-03T15:52:54.802Z,97030.19
2022-12-03T15:55:21.514Z,97033.69
2022-12-03T15:57:49.204Z,96909.03
2022-12-03T16:00:15.961Z,97024.56
2022-12-03T16:02:45.136Z,97024.03
2022-12-03T16:05:15.694Z,97028.69
2022-12-03T16:07:42.248Z,97024.69
2022-12-03T16:10:09.280Z,97034.34
2022-12-03T16:12:35.781Z,97025.81
2022-12-03T16:15:02.334Z,97027.88
2022-12-03T16:17:28.785Z,97023.03
2022-12-03T16:19:55.424Z,97029.34
2022-12-03T16:22:22.124Z,97028.94
2022-12-03T16:24:48.541Z,97029.84
2022-12-03T16:27:16.267Z,97025.97
2022-12-03T16:29:42.839Z,97036.41
2022-12-03T16:32:09.324Z,97024.50
2022-12-03T16:34:35.745Z,97026.97
2022-12-03T16:37:17.927Z,97039.50
2022-12-03T16:39:44.414Z,97037.88
2022-12-03T16:42:16.917Z,97038.16
2022-12-03T16:45:03.986Z,97037.84
2022-12-03T16:47:33.853Z,97029.72
2022-12-03T16:50:04.142Z,97031.19
2022-12-03T16:52:30.967Z,97033.03
2022-12-03T16:54:57.547Z,97038.16
2022-12-03T16:57:25.683Z,97041.13
2022-12-03T16:59:55.636Z,97032.91
2022-12-03T17:02:22.270Z,97029.53
2022-12-03T17:04:49.054Z,97035.38
2022-12-03T17:07:15.770Z,97024.06
2022-12-03T17:09:42.358Z,97026.88
2022-12-03T17:12:08.954Z,97030.97
2022-12-03T17:14:35.384Z,97029.44
2022-12-03T17:17:01.919Z,97033.53
2022-12-03T17:19:28.486Z,97020.63
2022-12-03T17:21:55.020Z,97024.09
2022-12-03T17:24:21.704Z,97023.59
2022-12-03T17:26:48.268Z,97017.63
2022-12-03T17:29:14.693Z,97014.75
2022-12-03T17:31:42.445Z,97015.16
2022-12-03T17:34:09.173Z,97024.28
2022-12-03T17:36:35.594Z,97014.34
2022-12-03T17:39:02.054Z,97013.44
2022-12-03T17:41:28.554Z,97015.06
2022-12-03T17:43:55.058Z,97023.56
2022-12-03T17:46:21.613Z,97024.28
2022-12-03T17:48:48.070Z,97032.31
2022-12-03T17:51:15.067Z,97027.38
2022-12-03T17:53:41.646Z,97023.78
2022-12-03T17:56:08.081Z,97019.75
2022-12-03T17:58:34.965Z,97025.28
2022-12-03T18:01:03.010Z,97021.31
2022-12-03T18:03:30.012Z,97027.78
2022-12-03T18:05:56.491Z,97024.72
2022-12-03T18:08:23.109Z,97026.75
2022-12-03T18:10:49.776Z,97020.00
2022-12-03T18:13:16.226Z,97009.28
2022-12-03T18:15:42.815Z,97009.50
2022-12-03T18:18:09.411Z,97012.91
2022-12-03T18:20:35.859Z,97003.44
2022-12-03T18:23:02.340Z,97010.13
2022-12-03T18:25:28.828Z,97015.97
2022-12-03T18:27:55.263Z,97011.78
2022-12-03T18:30:21.742Z,97017.84
2022-12-03T18:32:48.220Z,97013.72
2022-12-03T18:35:14.668Z,97006.25
2022-12-03T18:37:41.087Z,97009.00
2022-12-03T18:40:12.679Z,97004.28
2022-12-03T18:42:39.830Z,97012.19
2022-12-03T18:45:06.481Z,97009.31
2022-12-03T18:47:32.970Z,97020.81
2022-12-03T18:49:59.666Z,97008.19
2022-12-03T18:52:26.231Z,97017.53
2022-12-03T18:54:52.885Z,97013.81
2022-12-03T18:57:19.552Z,97020.09
2022-12-03T18:59:46.105Z,97019.47
2022-12-03T19:02:38.630Z,97026.53
2022-12-03T19:05:02.995Z,97018.00
2022-12-03T19:07:29.486Z,97019.94
2022-12-03T19:09:56.110Z,97026.72
2022-12-03T19:12:22.818Z,97018.16
2022-12-03T19:14:50.302Z,97015.16
2022-12-03T19:17:17.017Z,97014.03
2022-12-03T19:19:43.499Z,97012.91
2022-12-03T19:22:10.024Z,97020.38
2022-12-03T19:24:36.578Z,97011.66
2022-12-03T19:27:03.014Z,97012.97
2022-12-03T19:29:29.500Z,97010.88
2022-12-03T19:31:56.333Z,97013.25
2022-12-03T19:34:24.229Z,97019.25
2022-12-03T19:36:50.818Z,96871.38
2022-12-03T19:39:17.329Z,97039.06
2022-12-03T19:41:44.696Z,97032.88
2022-12-03T19:44:12.161Z,97031.75
2022-12-03T19:46:38.572Z,97032.34
2022-12-03T19:49:06.213Z,97038.06
2022-12-03T19:55:02.126Z,97032.94
2022-12-03T19:57:28.608Z,97033.88
2022-12-03T19:59:55.381Z,97028.09
2022-12-03T20:02:22.152Z,97032.34
2022-12-03T20:04:48.767Z,97041.47
2022-12-03T20:07:15.206Z,97034.47
2022-12-03T20:09:41.650Z,97041.16
2022-12-03T20:12:08.125Z,97027.84
2022-12-03T20:14:34.558Z,97035.09
2022-12-03T20:17:01.129Z,97027.75
2022-12-03T20:19:27.846Z,97026.38
2022-12-03T20:21:59.019Z,97019.94
2022-12-03T20:24:28.716Z,97021.72
2022-12-03T20:26:55.146Z,97024.88
2022-12-03T20:29:21.618Z,97033.88
2022-12-03T20:31:48.113Z,97028.72
2022-12-03T20:34:14.590Z,97030.38
2022-12-03T20:36:41.115Z,97022.75
2022-12-03T20:39:08.065Z,97019.13
2022-12-03T20:41:35.006Z,97016.69
2022-12-03T20:44:02.428Z,97014.22
2022-12-03T20:46:29.800Z,97019.47
2022-12-03T20:48:56.487Z,97008.13
2022-12-03T20:51:26.748Z,97012.34
2022-12-03T20:53:53.294Z,97005.44
2022-12-03T20:56:20.726Z,97012.47
2022-12-03T20:58:48.349Z,96996.91
2022-12-03T21:01:18.815Z,96999.13
2022-12-03T21:03:45.403Z,96994.91
2022-12-03T21:06:12.113Z,96996.41
2022-12-03T21:08:42.708Z,96994.78
2022-12-03T21:14:30.925Z,96987.91
2022-12-03T21:17:08.346Z,96996.13
2022-12-03T21:19:35.785Z,96989.81
2022-12-03T21:22:02.236Z,96987.00
2022-12-03T21:24:29.927Z,96983.97
2022-12-03T21:26:56.457Z,97000.22
2022-12-03T21:29:23.205Z,96986.19
2022-12-03T21:31:49.639Z,96992.28
2022-12-03T21:34:16.439Z,96993.50
2022-12-03T21:36:43.930Z,97005.53
2022-12-03T21:39:10.529Z,97009.88
2022-12-03T21:41:37.020Z,97005.66
2022-12-03T21:44:03.705Z,97020.06
2022-12-03T21:47:12.620Z,97016.44
2022-12-03T21:49:19.447Z,97023.81
2022-12-03T21:51:48.757Z,97006.84
2022-12-03T21:54:15.450Z,97013.63
2022-12-03T21:56:41.983Z,97017.97
2022-12-03T21:59:08.492Z,97014.31
2022-12-03T22:01:35.159Z,97014.22
2022-12-03T22:04:01.778Z,97012.56
2022-12-03T22:06:28.236Z,97010.00
2022-12-03T22:08:54.680Z,96999.47
2022-12-03T22:11:22.020Z,96992.34
2022-12-03T22:13:48.575Z,96981.91
2022-12-03T22:16:18.464Z,96988.69
2022-12-03T22:18:45.171Z,96982.72
2022-12-03T22:21:12.529Z,96988.56
2022-12-03T22:23:39.115Z,96981.22
2022-12-03T22:26:06.337Z,96986.94
2022-12-03T22:28:33.027Z,96985.19
2022-12-03T22:31:00.589Z,96990.47
2022-12-03T22:33:27.296Z,96980.03
2022-12-03T22:35:54.551Z,96984.38
2022-12-03T22:38:20.977Z,96980.84
2022-12-03T22:40:47.480Z,96984.25
2022-12-03T22:43:14.003Z,96984.25
2022-12-03T22:45:40.611Z,96986.94
2022-12-03T22:48:07.080Z,96988.69
2022-12-03T22:50:33.541Z,96984.00
2022-12-03T22:53:00.040Z,96989.97
2022-12-03T22:55:26.513Z,96979.69
2022-12-03T22:57:53.639Z,96977.22
2022-12-03T23:00:27.495Z,96980.84
2022-12-03T23:02:54.007Z,96982.84
2022-12-03T23:05:20.465Z,96978.63
2022-12-03T23:07:47.160Z,96977.69
2022-12-03T23:10:13.695Z,96980.16
2022-12-03T23:12:40.222Z,96989.50
2022-12-03T23:15:07.143Z,96986.00
2022-12-03T23:20:55.446Z,96987.28
2022-12-03T23:23:22.818Z,96980.16
2022-12-03T23:25:56.503Z,96969.72
2022-12-03T23:28:23.396Z,96977.31
2022-12-03T23:30:50.003Z,96974.19
2022-12-03T23:33:16.530Z,96969.38
2022-12-03T23:35:43.161Z,96949.22
2022-12-03T23:38:09.761Z,96964.81
2022-12-03T23:40:36.330Z,96962.94
2022-12-03T23:43:02.837Z,96955.41
2022-12-03T23:45:29.373Z,96958.25
2022-12-03T23:47:58.355Z,96959.66
2022-12-03T23:50:25.094Z,96967.50
2022-12-03T23:52:51.552Z,96952.16
2022-12-03T23:55:18.006Z,96955.53
